sensor_id;sensor_type;location;lat;lon;timestamp;temperature;humidity
7445;DHT22;3764;48.126;11.594;2022-11-27T00:00:07;2.50;99.90
7445;DHT22;3764;48.126;11.594;2022-11-27T00:02:34;2.50;99.90
7445;DHT22;3764;48.126;11.594;2022-11-27T00:05:02;2.50;99.90
7445;DHT22;3764;48.126;11.594;2022-11-27T00:07:30;2.50;99.90
7445;DHT22;3764;48.126;11.594;2022-11-27T00:09:57;2.50;99.90
7445;DHT22;3764;48.126;11.594;2022-11-27T00:12:24;2.50;99.90
7445;DHT22;3764;48.126;11.594;2022-11-27T00:14:51;2.40;99.90
7445;DHT22;3764;48.126;11.594;2022-11-27T00:17:18;2.40;99.90
7445;DHT22;3764;48.126;11.594;2022-11-27T00:19:46;2.40;99.90
7445;DHT22;3764;48.126;11.594;2022-11-27T00:22:13;2.40;99.90
7445;DHT22;3764;48.126;11.594;2022-11-27T00:24:42;2.40;99.90
7445;DHT22;3764;48.126;11.594;2022-11-27T00:27:09;2.40;99.90
7445;DHT22;3764;48.126;11.594;2022-11-27T00:29:36;2.30;99.90
7445;DHT22;3764;48.126;11.594;2022-11-27T00:32:03;2.30;99.90
7445;DHT22;3764;48.126;11.594;2022-11-27T00:34:32;2.30;99.90
7445;DHT22;3764;48.126;11.594;2022-11-27T00:37:00;2.30;99.90
7445;DHT22;3764;48.126;11.594;2022-11-27T00:39:27;2.20;99.90
7445;DHT22;3764;48.126;11.594;2022-11-27T00:41:56;2.30;99.90
7445;DHT22;3764;48.126;11.594;2022-11-27T00:44:23;2.30;99.90
7445;DHT22;3764;48.126;11.594;2022-11-27T00:46:50;2.20;99.90
7445;DHT22;3764;48.126;11.594;2022-11-27T00:49:17;2.20;99.90
7445;DHT22;3764;48.126;11.594;2022-11-27T00:51:44;2.20;99.90
7445;DHT22;3764;48.126;11.594;2022-11-27T00:54:12;2.10;99.90
7445;DHT22;3764;48.126;11.594;2022-11-27T00:56:39;2.10;99.90
7445;DHT22;3764;48.126;11.594;2022-11-27T00:59:08;2.10;99.90
7445;DHT22;3764;48.126;11.594;2022-11-27T01:01:37;2.00;99.90
7445;DHT22;3764;48.126;11.594;2022-11-27T01:04:07;2.00;99.90
7445;DHT22;3764;48.126;11.594;2022-11-27T01:06:35;2.10;99.90
7445;DHT22;3764;48.126;11.594;2022-11-27T01:09:03;2.20;99.90
7445;DHT22;3764;48.126;11.594;2022-11-27T01:11:32;2.10;99.90
7445;DHT22;3764;48.126;11.594;2022-11-27T01:14:01;2.10;99.90
7445;DHT22;3764;48.126;11.594;2022-11-27T01:16:30;2.20;99.90
7445;DHT22;3764;48.126;11.594;2022-11-27T01:18:59;2.20;99.90
7445;DHT22;3764;48.126;11.594;2022-11-27T01:21:29;2.10;99.90
7445;DHT22;3764;48.126;11.594;2022-11-27T01:23:57;2.20;99.90
7445;DHT22;3764;48.126;11.594;2022-11-27T01:26:24;2.40;99.90
7445;DHT22;3764;48.126;11.594;2022-11-27T01:28:52;2.50;99.90
7445;DHT22;3764;48.126;11.594;2022-11-27T01:31:21;2.50;99.90
7445;DHT22;3764;48.126;11.594;2022-11-27T01:33:53;2.50;99.90
7445;DHT22;3764;48.126;11.594;2022-11-27T01:36:22;2.60;99.90
7445;DHT22;3764;48.126;11.594;2022-11-27T01:38:49;2.60;99.90
7445;DHT22;3764;48.126;11.594;2022-11-27T01:41:18;2.60;99.90
7445;DHT22;3764;48.126;11.594;2022-11-27T01:43:47;2.50;99.90
7445;DHT22;3764;48.126;11.594;2022-11-27T01:46:24;2.40;99.90
7445;DHT22;3764;48.126;11.594;2022-11-27T01:48:57;2.40;99.90
7445;DHT22;3764;48.126;11.594;2022-11-27T01:51:25;2.40;99.90
7445;DHT22;3764;48.126;11.594;2022-11-27T01:53:53;2.30;99.90
7445;DHT22;3764;48.126;11.594;2022-11-27T01:56:21;2.30;99.90
7445;DHT22;3764;48.126;11.594;2022-11-27T01:58:50;2.30;99.90
7445;DHT22;3764;48.126;11.594;2022-11-27T02:01:17;2.30;99.90
7445;DHT22;3764;48.126;11.594;2022-11-27T02:03:44;2.40;99.90
7445;DHT22;3764;48.126;11.594;2022-11-27T02:06:13;2.50;99.90
7445;DHT22;3764;48.126;11.594;2022-11-27T02:08:41;2.60;99.90
7445;DHT22;3764;48.126;11.594;2022-11-27T02:11:14;2.70;99.90
7445;DHT22;3764;48.126;11.594;2022-11-27T02:13:46;2.80;99.90
7445;DHT22;3764;48.126;11.594;2022-11-27T02:16:19;2.80;99.90
7445;DHT22;3764;48.126;11.594;2022-11-27T02:18:53;2.80;99.90
7445;DHT22;3764;48.126;11.594;2022-11-27T02:21:41;2.70;99.90
7445;DHT22;3764;48.126;11.594;2022-11-27T02:24:41;2.50;99.90
7445;DHT22;3764;48.126;11.594;2022-11-27T02:27:38;2.40;99.90
7445;DHT22;3764;48.126;11.594;2022-11-27T02:30:11;2.30;99.90
7445;DHT22;3764;48.126;11.594;2022-11-27T02:32:42;2.10;99.90
7445;DHT22;3764;48.126;11.594;2022-11-27T02:35:13;2.00;99.90
7445;DHT22;3764;48.126;11.594;2022-11-27T02:37:45;2.00;99.90
7445;DHT22;3764;48.126;11.594;2022-11-27T02:40:19;2.00;99.90
7445;DHT22;3764;48.126;11.594;2022-11-27T02:42:50;1.90;99.90
7445;DHT22;3764;48.126;11.594;2022-11-27T02:45:22;1.90;99.90
7445;DHT22;3764;48.126;11.594;2022-11-27T02:47:50;1.90;99.90
7445;DHT22;3764;48.126;11.594;2022-11-27T02:50:20;1.90;99.90
7445;DHT22;3764;48.126;11.594;2022-11-27T02:52:49;1.80;99.90
7445;DHT22;3764;48.126;11.594;2022-11-27T02:55:21;1.90;99.90
7445;DHT22;3764;48.126;11.594;2022-11-27T02:57:50;1.90;99.90
7445;DHT22;3764;48.126;11.594;2022-11-27T03:00:20;1.90;99.90
7445;DHT22;3764;48.126;11.594;2022-11-27T03:02:50;1.90;99.90
7445;DHT22;3764;48.126;11.594;2022-11-27T03:05:19;1.90;99.90
7445;DHT22;3764;48.126;11.594;2022-11-27T03:07:53;2.00;99.90
7445;DHT22;3764;48.126;11.594;2022-11-27T03:10:26;2.00;99.90
7445;DHT22;3764;48.126;11.594;2022-11-27T03:12:56;2.00;99.90
7445;DHT22;3764;48.126;11.594;2022-11-27T03:15:26;1.90;99.90
7445;DHT22;3764;48.126;11.594;2022-11-27T03:18:02;1.90;99.90
7445;DHT22;3764;48.126;11.594;2022-11-27T03:20:35;1.80;99.90
7445;DHT22;3764;48.126;11.594;2022-11-27T03:23:04;1.80;99.90
7445;DHT22;3764;48.126;11.594;2022-11-27T03:25:31;1.80;99.90
7445;DHT22;3764;48.126;11.594;2022-11-27T03:28:01;1.90;99.90
7445;DHT22;3764;48.126;11.594;2022-11-27T03:30:30;2.00;99.90
7445;DHT22;3764;48.126;11.594;2022-11-27T03:32:57;2.10;99.90
7445;DHT22;3764;48.126;11.594;2022-11-27T03:35:26;2.10;99.90
7445;DHT22;3764;48.126;11.594;2022-11-27T03:37:53;2.00;99.90
7445;DHT22;3764;48.126;11.594;2022-11-27T03:40:26;2.00;99.90
7445;DHT22;3764;48.126;11.594;2022-11-27T03:43:00;1.90;99.90
7445;DHT22;3764;48.126;11.594;2022-11-27T03:45:34;1.90;99.90
7445;DHT22;3764;48.126;11.594;2022-11-27T03:48:11;1.90;99.90
7445;DHT22;3764;48.126;11.594;2022-11-27T03:50:50;1.90;99.90
7445;DHT22;3764;48.126;11.594;2022-11-27T03:53:28;1.80;99.90
7445;DHT22;3764;48.126;11.594;2022-11-27T03:56:03;1.80;99.90
7445;DHT22;3764;48.126;11.594;2022-11-27T03:58:34;1.90;99.90
7445;DHT22;3764;48.126;11.594;2022-11-27T04:01:06;2.00;99.90
7445;DHT22;3764;48.126;11.594;2022-11-27T04:03:34;2.00;99.90
7445;DHT22;3764;48.126;11.594;2022-11-27T04:06:01;2.20;99.90
7445;DHT22;3764;48.126;11.594;2022-11-27T04:08:29;2.20;99.90
7445;DHT22;3764;48.126;11.594;2022-11-27T04:10:56;2.30;99.90
7445;DHT22;3764;48.126;11.594;2022-11-27T04:13:23;2.30;99.90
7445;DHT22;3764;48.126;11.594;2022-11-27T04:15:50;2.40;99.90
7445;DHT22;3764;48.126;11.594;2022-11-27T04:18:18;2.40;99.90
7445;DHT22;3764;48.126;11.594;2022-11-27T04:20:46;2.50;99.90
7445;DHT22;3764;48.126;11.594;2022-11-27T04:23:13;2.50;99.90
7445;DHT22;3764;48.126;11.594;2022-11-27T04:25:40;2.50;99.90
7445;DHT22;3764;48.126;11.594;2022-11-27T04:28:07;2.60;99.90
7445;DHT22;3764;48.126;11.594;2022-11-27T04:30:34;2.50;99.90
7445;DHT22;3764;48.126;11.594;2022-11-27T04:33:01;2.50;99.90
7445;DHT22;3764;48.126;11.594;2022-11-27T04:35:30;2.30;99.90
7445;DHT22;3764;48.126;11.594;2022-11-27T04:37:57;2.20;99.90
7445;DHT22;3764;48.126;11.594;2022-11-27T04:40:24;2.00;99.90
7445;DHT22;3764;48.126;11.594;2022-11-27T04:42:51;1.80;99.90
7445;DHT22;3764;48.126;11.594;2022-11-27T04:45:18;1.70;99.90
7445;DHT22;3764;48.126;11.594;2022-11-27T04:47:45;1.60;99.90
7445;DHT22;3764;48.126;11.594;2022-11-27T04:50:12;1.50;99.90
7445;DHT22;3764;48.126;11.594;2022-11-27T04:52:41;1.50;99.90
7445;DHT22;3764;48.126;11.594;2022-11-27T04:55:09;1.50;99.90
7445;DHT22;3764;48.126;11.594;2022-11-27T04:57:36;1.40;99.90
7445;DHT22;3764;48.126;11.594;2022-11-27T05:00:04;1.40;99.90
7445;DHT22;3764;48.126;11.594;2022-11-27T05:02:31;1.40;99.90
7445;DHT22;3764;48.126;11.594;2022-11-27T05:04:59;1.40;99.90
7445;DHT22;3764;48.126;11.594;2022-11-27T05:07:26;1.50;99.90
7445;DHT22;3764;48.126;11.594;2022-11-27T05:09:54;1.60;99.90
7445;DHT22;3764;48.126;11.594;2022-11-27T05:12:22;1.70;99.90
7445;DHT22;3764;48.126;11.594;2022-11-27T05:14:49;1.70;99.90
7445;DHT22;3764;48.126;11.594;2022-11-27T05:17:16;1.70;99.90
7445;DHT22;3764;48.126;11.594;2022-11-27T05:19:43;1.70;99.90
7445;DHT22;3764;48.126;11.594;2022-11-27T05:22:10;1.60;99.90
7445;DHT22;3764;48.126;11.594;2022-11-27T05:24:37;1.60;99.90
7445;DHT22;3764;48.126;11.594;2022-11-27T05:27:06;1.50;99.90
7445;DHT22;3764;48.126;11.594;2022-11-27T05:29:33;1.40;99.90
7445;DHT22;3764;48.126;11.594;2022-11-27T05:32:00;1.40;99.90
7445;DHT22;3764;48.126;11.594;2022-11-27T05:34:27;1.40;99.90
7445;DHT22;3764;48.126;11.594;2022-11-27T05:36:54;1.40;99.90
7445;DHT22;3764;48.126;11.594;2022-11-27T05:39:21;1.30;99.90
7445;DHT22;3764;48.126;11.594;2022-11-27T05:41:48;1.30;99.90
7445;DHT22;3764;48.126;11.594;2022-11-27T05:44:16;1.30;99.90
7445;DHT22;3764;48.126;11.594;2022-11-27T05:46:43;1.30;99.90
7445;DHT22;3764;48.126;11.594;2022-11-27T05:49:13;1.30;99.90
7445;DHT22;3764;48.126;11.594;2022-11-27T05:51:41;1.20;99.90
7445;DHT22;3764;48.126;11.594;2022-11-27T05:54:09;1.30;99.90
7445;DHT22;3764;48.126;11.594;2022-11-27T05:56:36;1.30;99.90
7445;DHT22;3764;48.126;11.594;2022-11-27T05:59:03;1.30;99.90
7445;DHT22;3764;48.126;11.594;2022-11-27T06:01:31;1.40;99.90
7445;DHT22;3764;48.126;11.594;2022-11-27T06:03:59;1.50;99.90
7445;DHT22;3764;48.126;11.594;2022-11-27T06:06:26;1.60;99.90
7445;DHT22;3764;48.126;11.594;2022-11-27T06:08:54;1.70;99.90
7445;DHT22;3764;48.126;11.594;2022-11-27T06:11:22;1.60;99.90
7445;DHT22;3764;48.126;11.594;2022-11-27T06:13:50;1.50;99.90
7445;DHT22;3764;48.126;11.594;2022-11-27T06:16:19;1.50;99.90
7445;DHT22;3764;48.126;11.594;2022-11-27T06:18:50;1.50;99.90
7445;DHT22;3764;48.126;11.594;2022-11-27T06:21:18;1.60;99.90
7445;DHT22;3764;48.126;11.594;2022-11-27T06:23:46;1.50;99.90
7445;DHT22;3764;48.126;11.594;2022-11-27T06:26:15;1.40;99.90
7445;DHT22;3764;48.126;11.594;2022-11-27T06:28:43;1.40;99.90
7445;DHT22;3764;48.126;11.594;2022-11-27T06:31:12;1.40;99.90
7445;DHT22;3764;48.126;11.594;2022-11-27T06:33:40;1.30;99.90
7445;DHT22;3764;48.126;11.594;2022-11-27T06:36:09;1.30;99.90
7445;DHT22;3764;48.126;11.594;2022-11-27T06:38:36;1.30;99.90
7445;DHT22;3764;48.126;11.594;2022-11-27T06:41:05;1.40;99.90
7445;DHT22;3764;48.126;11.594;2022-11-27T06:43:33;1.50;99.90
7445;DHT22;3764;48.126;11.594;2022-11-27T06:46:01;1.60;99.90
7445;DHT22;3764;48.126;11.594;2022-11-27T06:48:28;1.70;99.90
7445;DHT22;3764;48.126;11.594;2022-11-27T06:50:58;1.70;99.90
7445;DHT22;3764;48.126;11.594;2022-11-27T06:53:26;1.80;99.90
7445;DHT22;3764;48.126;11.594;2022-11-27T06:55:54;1.90;99.90
7445;DHT22;3764;48.126;11.594;2022-11-27T06:58:21;1.90;99.90
7445;DHT22;3764;48.126;11.594;2022-11-27T07:00:48;1.90;99.90
7445;DHT22;3764;48.126;11.594;2022-11-27T07:03:15;2.00;99.90
7445;DHT22;3764;48.126;11.594;2022-11-27T07:05:42;2.10;99.90
7445;DHT22;3764;48.126;11.594;2022-11-27T07:08:09;2.10;99.90
7445;DHT22;3764;48.126;11.594;2022-11-27T07:10:37;2.10;99.90
7445;DHT22;3764;48.126;11.594;2022-11-27T07:13:04;2.10;99.90
7445;DHT22;3764;48.126;11.594;2022-11-27T07:15:32;2.10;99.90
7445;DHT22;3764;48.126;11.594;2022-11-27T07:18:00;2.20;99.90
7445;DHT22;3764;48.126;11.594;2022-11-27T07:20:27;2.20;99.90
7445;DHT22;3764;48.126;11.594;2022-11-27T07:22:54;2.20;99.90
7445;DHT22;3764;48.126;11.594;2022-11-27T07:25:21;2.20;99.90
7445;DHT22;3764;48.126;11.594;2022-11-27T07:27:50;2.20;99.90
7445;DHT22;3764;48.126;11.594;2022-11-27T07:30:17;2.20;99.90
7445;DHT22;3764;48.126;11.594;2022-11-27T07:32:44;2.20;99.90
7445;DHT22;3764;48.126;11.594;2022-11-27T07:35:11;2.20;99.90
7445;DHT22;3764;48.126;11.594;2022-11-27T07:37:39;2.20;99.90
7445;DHT22;3764;48.126;11.594;2022-11-27T07:40:06;2.20;99.90
7445;DHT22;3764;48.126;11.594;2022-11-27T07:42:34;2.30;99.90
7445;DHT22;3764;48.126;11.594;2022-11-27T07:45:02;2.30;99.90
7445;DHT22;3764;48.126;11.594;2022-11-27T07:47:29;2.20;99.90
7445;DHT22;3764;48.126;11.594;2022-11-27T07:49:56;2.30;99.90
7445;DHT22;3764;48.126;11.594;2022-11-27T07:52:25;2.30;99.90
7445;DHT22;3764;48.126;11.594;2022-11-27T07:54:52;2.30;99.90
7445;DHT22;3764;48.126;11.594;2022-11-27T07:57:19;2.30;99.90
7445;DHT22;3764;48.126;11.594;2022-11-27T07:59:46;2.20;99.90
7445;DHT22;3764;48.126;11.594;2022-11-27T08:02:15;2.20;99.90
7445;DHT22;3764;48.126;11.594;2022-11-27T08:04:42;2.20;99.90
7445;DHT22;3764;48.126;11.594;2022-11-27T08:07:09;2.20;99.90
7445;DHT22;3764;48.126;11.594;2022-11-27T08:09:36;2.20;99.90
7445;DHT22;3764;48.126;11.594;2022-11-27T08:12:04;2.20;99.90
7445;DHT22;3764;48.126;11.594;2022-11-27T08:14:32;2.10;99.90
7445;DHT22;3764;48.126;11.594;2022-11-27T08:16:59;2.00;99.90
7445;DHT22;3764;48.126;11.594;2022-11-27T08:19:27;2.00;99.90
7445;DHT22;3764;48.126;11.594;2022-11-27T08:21:55;2.00;99.90
7445;DHT22;3764;48.126;11.594;2022-11-27T08:24:23;2.00;99.90
7445;DHT22;3764;48.126;11.594;2022-11-27T08:26:50;1.90;99.90
7445;DHT22;3764;48.126;11.594;2022-11-27T08:29:17;1.80;99.90
7445;DHT22;3764;48.126;11.594;2022-11-27T08:31:45;1.80;99.90
7445;DHT22;3764;48.126;11.594;2022-11-27T08:34:12;1.70;99.90
7445;DHT22;3764;48.126;11.594;2022-11-27T08:36:40;1.60;99.90
7445;DHT22;3764;48.126;11.594;2022-11-27T08:39:07;1.60;99.90
7445;DHT22;3764;48.126;11.594;2022-11-27T08:41:36;1.60;99.90
7445;DHT22;3764;48.126;11.594;2022-11-27T08:44:03;1.70;99.90
7445;DHT22;3764;48.126;11.594;2022-11-27T08:46:30;1.70;99.90
7445;DHT22;3764;48.126;11.594;2022-11-27T08:48:58;1.80;99.90
7445;DHT22;3764;48.126;11.594;2022-11-27T08:51:25;1.90;99.90
7445;DHT22;3764;48.126;11.594;2022-11-27T08:53:53;1.90;99.90
7445;DHT22;3764;48.126;11.594;2022-11-27T08:56:22;2.00;99.90
7445;DHT22;3764;48.126;11.594;2022-11-27T08:58:49;2.10;99.90
7445;DHT22;3764;48.126;11.594;2022-11-27T09:01:19;2.20;99.90
7445;DHT22;3764;48.126;11.594;2022-11-27T09:03:47;2.30;99.90
7445;DHT22;3764;48.126;11.594;2022-11-27T09:06:16;2.50;99.90
7445;DHT22;3764;48.126;11.594;2022-11-27T09:08:44;2.50;99.90
7445;DHT22;3764;48.126;11.594;2022-11-27T09:11:15;2.60;99.90
7445;DHT22;3764;48.126;11.594;2022-11-27T09:13:42;2.70;99.90
7445;DHT22;3764;48.126;11.594;2022-11-27T09:16:12;2.70;99.90
7445;DHT22;3764;48.126;11.594;2022-11-27T09:18:42;2.80;99.90
7445;DHT22;3764;48.126;11.594;2022-11-27T09:21:10;2.80;99.90
7445;DHT22;3764;48.126;11.594;2022-11-27T09:23:38;2.80;99.90
7445;DHT22;3764;48.126;11.594;2022-11-27T09:26:07;2.90;99.90
7445;DHT22;3764;48.126;11.594;2022-11-27T09:28:36;2.90;99.90
7445;DHT22;3764;48.126;11.594;2022-11-27T09:31:05;2.90;99.90
7445;DHT22;3764;48.126;11.594;2022-11-27T09:33:34;3.00;99.90
7445;DHT22;3764;48.126;11.594;2022-11-27T09:36:03;3.00;99.90
7445;DHT22;3764;48.126;11.594;2022-11-27T09:38:31;3.00;99.90
7445;DHT22;3764;48.126;11.594;2022-11-27T09:41:02;3.10;99.90
7445;DHT22;3764;48.126;11.594;2022-11-27T09:43:41;3.10;99.90
7445;DHT22;3764;48.126;11.594;2022-11-27T09:46:12;3.10;99.90
7445;DHT22;3764;48.126;11.594;2022-11-27T09:48:45;3.20;99.90
7445;DHT22;3764;48.126;11.594;2022-11-27T09:51:31;3.20;99.90
7445;DHT22;3764;48.126;11.594;2022-11-27T09:54:02;3.20;99.90
7445;DHT22;3764;48.126;11.594;2022-11-27T09:56:33;3.20;99.90
7445;DHT22;3764;48.126;11.594;2022-11-27T09:59:03;3.30;99.90
7445;DHT22;3764;48.126;11.594;2022-11-27T10:01:35;3.30;99.90
7445;DHT22;3764;48.126;11.594;2022-11-27T10:04:03;3.30;99.90
7445;DHT22;3764;48.126;11.594;2022-11-27T10:06:37;3.30;99.90
7445;DHT22;3764;48.126;11.594;2022-11-27T10:09:16;3.30;99.90
7445;DHT22;3764;48.126;11.594;2022-11-27T10:11:52;3.40;99.90
7445;DHT22;3764;48.126;11.594;2022-11-27T10:14:38;3.30;99.90
7445;DHT22;3764;48.126;11.594;2022-11-27T10:17:11;3.30;99.90
7445;DHT22;3764;48.126;11.594;2022-11-27T10:19:47;3.30;99.90
7445;DHT22;3764;48.126;11.594;2022-11-27T10:22:20;3.40;99.90
7445;DHT22;3764;48.126;11.594;2022-11-27T10:24:58;3.40;99.90
7445;DHT22;3764;48.126;11.594;2022-11-27T10:27:34;3.40;99.90
7445;DHT22;3764;48.126;11.594;2022-11-27T10:32:39;3.40;99.90
7445;DHT22;3764;48.126;11.594;2022-11-27T10:35:11;3.50;99.90
7445;DHT22;3764;48.126;11.594;2022-11-27T10:37:44;3.50;99.90
7445;DHT22;3764;48.126;11.594;2022-11-27T10:40:19;3.60;99.90
7445;DHT22;3764;48.126;11.594;2022-11-27T10:42:50;3.60;99.90
7445;DHT22;3764;48.126;11.594;2022-11-27T10:45:22;3.70;99.90
7445;DHT22;3764;48.126;11.594;2022-11-27T10:47:50;3.70;99.90
7445;DHT22;3764;48.126;11.594;2022-11-27T10:50:18;3.70;99.90
7445;DHT22;3764;48.126;11.594;2022-11-27T10:52:49;3.70;99.90
7445;DHT22;3764;48.126;11.594;2022-11-27T10:55:27;3.80;99.90
7445;DHT22;3764;48.126;11.594;2022-11-27T10:58:05;3.80;99.90
7445;DHT22;3764;48.126;11.594;2022-11-27T11:00:36;3.80;99.90
7445;DHT22;3764;48.126;11.594;2022-11-27T11:03:04;3.80;99.90
7445;DHT22;3764;48.126;11.594;2022-11-27T11:05:33;3.80;99.90
7445;DHT22;3764;48.126;11.594;2022-11-27T11:08:02;3.90;99.90
7445;DHT22;3764;48.126;11.594;2022-11-27T11:10:33;3.90;99.90
7445;DHT22;3764;48.126;11.594;2022-11-27T11:13:15;3.90;99.90
7445;DHT22;3764;48.126;11.594;2022-11-27T11:15:51;3.90;99.90
7445;DHT22;3764;48.126;11.594;2022-11-27T11:18:20;3.90;99.90
7445;DHT22;3764;48.126;11.594;2022-11-27T11:20:49;4.00;99.90
7445;DHT22;3764;48.126;11.594;2022-11-27T11:23:22;4.00;99.90
7445;DHT22;3764;48.126;11.594;2022-11-27T11:25:53;4.00;99.90
7445;DHT22;3764;48.126;11.594;2022-11-27T11:28:21;4.00;99.90
7445;DHT22;3764;48.126;11.594;2022-11-27T11:30:57;4.10;99.90
7445;DHT22;3764;48.126;11.594;2022-11-27T11:33:26;4.10;99.90
7445;DHT22;3764;48.126;11.594;2022-11-27T11:36:05;4.10;99.90
7445;DHT22;3764;48.126;11.594;2022-11-27T11:38:34;4.20;99.90
7445;DHT22;3764;48.126;11.594;2022-11-27T11:41:04;4.20;99.90
7445;DHT22;3764;48.126;11.594;2022-11-27T11:43:33;4.20;99.90
7445;DHT22;3764;48.126;11.594;2022-11-27T11:46:15;4.30;99.90
7445;DHT22;3764;48.126;11.594;2022-11-27T11:48:59;4.30;99.90
7445;DHT22;3764;48.126;11.594;2022-11-27T11:51:56;4.30;99.90
7445;DHT22;3764;48.126;11.594;2022-11-27T12:00:34;4.40;99.90
7445;DHT22;3764;48.126;11.594;2022-11-27T12:03:17;4.40;99.90
7445;DHT22;3764;48.126;11.594;2022-11-27T12:06:04;4.40;99.90
7445;DHT22;3764;48.126;11.594;2022-11-27T12:08:46;4.40;99.90
7445;DHT22;3764;48.126;11.594;2022-11-27T12:11:19;4.30;99.90
7445;DHT22;3764;48.126;11.594;2022-11-27T12:14:00;4.30;99.90
7445;DHT22;3764;48.126;11.594;2022-11-27T12:16:40;4.30;99.90
7445;DHT22;3764;48.126;11.594;2022-11-27T12:19:40;4.20;99.90
7445;DHT22;3764;48.126;11.594;2022-11-27T12:22:18;4.20;99.90
7445;DHT22;3764;48.126;11.594;2022-11-27T12:24:54;4.20;99.90
7445;DHT22;3764;48.126;11.594;2022-11-27T12:27:29;4.20;99.90
7445;DHT22;3764;48.126;11.594;2022-11-27T12:30:10;4.10;99.90
7445;DHT22;3764;48.126;11.594;2022-11-27T12:33:01;4.10;99.90
7445;DHT22;3764;48.126;11.594;2022-11-27T12:35:42;4.00;99.90
7445;DHT22;3764;48.126;11.594;2022-11-27T12:38:24;3.90;99.90
7445;DHT22;3764;48.126;11.594;2022-11-27T12:41:07;3.90;99.90
7445;DHT22;3764;48.126;11.594;2022-11-27T12:43:40;3.90;99.90
7445;DHT22;3764;48.126;11.594;2022-11-27T12:46:12;3.90;99.90
7445;DHT22;3764;48.126;11.594;2022-11-27T12:48:43;3.90;99.90
7445;DHT22;3764;48.126;11.594;2022-11-27T12:51:17;3.90;99.90
7445;DHT22;3764;48.126;11.594;2022-11-27T12:53:49;3.90;99.90
7445;DHT22;3764;48.126;11.594;2022-11-27T12:56:23;3.90;99.90
7445;DHT22;3764;48.126;11.594;2022-11-27T12:58:53;3.80;99.90
7445;DHT22;3764;48.126;11.594;2022-11-27T13:01:25;3.80;99.90
7445;DHT22;3764;48.126;11.594;2022-11-27T13:04:04;3.70;99.90
7445;DHT22;3764;48.126;11.594;2022-11-27T13:06:47;3.70;99.90
7445;DHT22;3764;48.126;11.594;2022-11-27T13:09:19;3.70;99.90
7445;DHT22;3764;48.126;11.594;2022-11-27T13:11:50;3.70;99.90
7445;DHT22;3764;48.126;11.594;2022-11-27T13:14:19;3.60;99.90
7445;DHT22;3764;48.126;11.594;2022-11-27T13:16:51;3.60;99.90
7445;DHT22;3764;48.126;11.594;2022-11-27T13:19:23;3.60;99.90
7445;DHT22;3764;48.126;11.594;2022-11-27T13:21:55;3.60;99.90
7445;DHT22;3764;48.126;11.594;2022-11-27T13:24:24;3.60;99.90
7445;DHT22;3764;48.126;11.594;2022-11-27T13:26:57;3.60;99.90
7445;DHT22;3764;48.126;11.594;2022-11-27T13:29:29;3.60;99.90
7445;DHT22;3764;48.126;11.594;2022-11-27T13:32:00;3.60;99.90
7445;DHT22;3764;48.126;11.594;2022-11-27T13:34:30;3.60;99.90
7445;DHT22;3764;48.126;11.594;2022-11-27T13:37:01;3.70;99.90
7445;DHT22;3764;48.126;11.594;2022-11-27T13:39:33;3.70;99.90
7445;DHT22;3764;48.126;11.594;2022-11-27T13:42:03;3.70;99.90
7445;DHT22;3764;48.126;11.594;2022-11-27T13:44:33;3.70;99.90
7445;DHT22;3764;48.126;11.594;2022-11-27T13:47:07;3.70;99.90
7445;DHT22;3764;48.126;11.594;2022-11-27T13:49:35;3.70;99.90
7445;DHT22;3764;48.126;11.594;2022-11-27T13:52:07;3.70;99.90
7445;DHT22;3764;48.126;11.594;2022-11-27T13:54:35;3.70;99.90
7445;DHT22;3764;48.126;11.594;2022-11-27T13:57:13;3.70;99.90
7445;DHT22;3764;48.126;11.594;2022-11-27T13:59:52;3.70;99.90
7445;DHT22;3764;48.126;11.594;2022-11-27T14:02:19;3.60;99.90
7445;DHT22;3764;48.126;11.594;2022-11-27T14:04:48;3.60;99.90
7445;DHT22;3764;48.126;11.594;2022-11-27T14:07:18;3.60;99.90
7445;DHT22;3764;48.126;11.594;2022-11-27T14:09:47;3.60;99.90
7445;DHT22;3764;48.126;11.594;2022-11-27T14:12:18;3.60;99.90
7445;DHT22;3764;48.126;11.594;2022-11-27T14:14:59;3.60;99.90
7445;DHT22;3764;48.126;11.594;2022-11-27T14:17:34;3.60;99.90
7445;DHT22;3764;48.126;11.594;2022-11-27T14:20:18;3.60;99.90
7445;DHT22;3764;48.126;11.594;2022-11-27T14:22:48;3.60;99.90
7445;DHT22;3764;48.126;11.594;2022-11-27T14:25:19;3.60;99.90
7445;DHT22;3764;48.126;11.594;2022-11-27T14:27:47;3.60;99.90
7445;DHT22;3764;48.126;11.594;2022-11-27T14:30:24;3.60;99.90
7445;DHT22;3764;48.126;11.594;2022-11-27T14:32:52;3.60;99.90
7445;DHT22;3764;48.126;11.594;2022-11-27T14:35:20;3.60;99.90
7445;DHT22;3764;48.126;11.594;2022-11-27T14:37:49;3.60;99.90
7445;DHT22;3764;48.126;11.594;2022-11-27T14:40:21;3.60;99.90
7445;DHT22;3764;48.126;11.594;2022-11-27T14:42:48;3.60;99.90
7445;DHT22;3764;48.126;11.594;2022-11-27T14:45:17;3.60;99.90
7445;DHT22;3764;48.126;11.594;2022-11-27T14:47:48;3.60;99.90
7445;DHT22;3764;48.126;11.594;2022-11-27T14:50:16;3.60;99.90
7445;DHT22;3764;48.126;11.594;2022-11-27T14:52:49;3.60;99.90
7445;DHT22;3764;48.126;11.594;2022-11-27T14:55:18;3.60;99.90
7445;DHT22;3764;48.126;11.594;2022-11-27T14:57:47;3.50;99.90
7445;DHT22;3764;48.126;11.594;2022-11-27T15:00:16;3.50;99.90
7445;DHT22;3764;48.126;11.594;2022-11-27T15:02:44;3.50;99.90
7445;DHT22;3764;48.126;11.594;2022-11-27T15:05:20;3.50;99.90
7445;DHT22;3764;48.126;11.594;2022-11-27T15:07:50;3.50;99.90
7445;DHT22;3764;48.126;11.594;2022-11-27T15:10:34;3.50;99.90
7445;DHT22;3764;48.126;11.594;2022-11-27T15:13:03;3.50;99.90
7445;DHT22;3764;48.126;11.594;2022-11-27T15:15:33;3.50;99.90
7445;DHT22;3764;48.126;11.594;2022-11-27T15:18:03;3.50;99.90
7445;DHT22;3764;48.126;11.594;2022-11-27T15:20:36;3.50;99.90
7445;DHT22;3764;48.126;11.594;2022-11-27T15:23:14;3.50;99.90
7445;DHT22;3764;48.126;11.594;2022-11-27T15:25:44;3.60;99.90
7445;DHT22;3764;48.126;11.594;2022-11-27T15:28:32;3.50;99.90
7445;DHT22;3764;48.126;11.594;2022-11-27T15:31:00;3.50;99.90
7445;DHT22;3764;48.126;11.594;2022-11-27T15:33:29;3.60;99.90
7445;DHT22;3764;48.126;11.594;2022-11-27T15:36:14;3.60;99.90
7445;DHT22;3764;48.126;11.594;2022-11-27T15:38:43;3.60;99.90
7445;DHT22;3764;48.126;11.594;2022-11-27T15:41:22;3.60;99.90
7445;DHT22;3764;48.126;11.594;2022-11-27T15:43:50;3.50;99.90
7445;DHT22;3764;48.126;11.594;2022-11-27T15:46:22;3.40;99.90
7445;DHT22;3764;48.126;11.594;2022-11-27T15:48:50;3.30;99.90
7445;DHT22;3764;48.126;11.594;2022-11-27T15:51:17;3.20;99.90
7445;DHT22;3764;48.126;11.594;2022-11-27T15:53:45;3.10;99.90
7445;DHT22;3764;48.126;11.594;2022-11-27T15:56:13;2.90;99.90
7445;DHT22;3764;48.126;11.594;2022-11-27T15:58:41;2.80;99.90
7445;DHT22;3764;48.126;11.594;2022-11-27T16:01:09;2.80;99.90
7445;DHT22;3764;48.126;11.594;2022-11-27T16:03:36;2.80;99.90
7445;DHT22;3764;48.126;11.594;2022-11-27T16:06:06;2.80;99.90
7445;DHT22;3764;48.126;11.594;2022-11-27T16:08:34;2.70;99.90
7445;DHT22;3764;48.126;11.594;2022-11-27T16:11:04;2.70;99.90
7445;DHT22;3764;48.126;11.594;2022-11-27T16:13:32;2.60;99.90
7445;DHT22;3764;48.126;11.594;2022-11-27T16:16:00;2.40;99.90
7445;DHT22;3764;48.126;11.594;2022-11-27T16:18:28;2.40;99.90
7445;DHT22;3764;48.126;11.594;2022-11-27T16:20:55;2.30;99.90
7445;DHT22;3764;48.126;11.594;2022-11-27T16:23:27;2.20;99.90
7445;DHT22;3764;48.126;11.594;2022-11-27T16:25:54;2.10;99.90
7445;DHT22;3764;48.126;11.594;2022-11-27T16:28:23;2.10;99.90
7445;DHT22;3764;48.126;11.594;2022-11-27T16:30:51;2.10;99.90